Time;durP1;ratioP1;P1;durP2;ratioP2;P2;SDS_P1;SDS_P2;PMS_P1;PMS_P2;Temp;Humidity;BMP_temperature;BMP_pressure;BME280_temperature;BME280_humidity;BME280_pressure;Samples;Min_cycle;Max_cycle;Signal;HPM_P1;HPM_P2
2022/12/03 00:08:22;;;;;;;11.57;3.58;;;;;;;22.23;34.07;103026.09;21063164;28;20086;-65
2022/12/03 00:18:23;;;;;;;16.52;3.95;;;;;;;22.23;34.19;103037.25;21047386;28;20040;-63
2022/12/03 00:28:24;;;;;;;12.38;3.55;;;;;;;22.23;34.26;103014.94;21041554;28;20043;-63
2022/12/03 00:38:28;;;;;;;13.02;4.22;;;;;;;22.25;34.33;102995.19;21068095;28;20047;-63
2022/12/03 00:48:29;;;;;;;12.25;3.30;;;;;;;22.30;34.05;102982.19;21070716;28;20093;-64
2022/12/03 00:58:31;;;;;;;10.13;2.88;;;;;;;22.25;34.32;102978.44;21068070;28;20109;-68
2022/12/03 01:08:32;;;;;;;8.88;2.55;;;;;;;22.32;34.46;102952.13;21070784;28;20033;-66
2022/12/03 01:18:36;;;;;;;10.02;3.28;;;;;;;22.35;34.46;102936.00;21066633;28;20445;-64
2022/12/03 01:28:37;;;;;;;8.70;1.98;;;;;;;22.35;34.38;102947.16;21067254;28;20048;-63
2022/12/03 01:38:39;;;;;;;7.07;2.55;;;;;;;22.36;34.40;102963.66;21068976;28;20060;-64
2022/12/03 01:48:40;;;;;;;6.47;1.85;;;;;;;22.36;34.20;102946.94;21048199;28;20484;-64
2022/12/03 01:58:45;;;;;;;12.45;2.63;;;;;;;22.35;34.32;102938.78;21049007;28;20102;-65
2022/12/03 02:08:48;;;;;;;9.30;1.98;;;;;;;22.24;34.28;102915.41;21081246;28;20530;-64
2022/12/03 02:18:49;;;;;;;8.98;2.13;;;;;;;21.91;33.92;102843.47;21074018;28;20547;-64
2022/12/03 02:28:53;;;;;;;9.65;2.40;;;;;;;22.35;34.05;102916.47;21081639;28;20040;-64
2022/12/03 02:38:54;;;;;;;4.25;1.50;;;;;;;22.42;33.85;102914.41;21052568;28;20044;-60
2022/12/03 02:48:59;;;;;;;6.50;1.92;;;;;;;22.38;33.90;102910.41;21070122;28;20380;-63
2022/12/03 02:59:04;;;;;;;6.97;1.75;;;;;;;22.43;33.55;102899.38;21080209;28;20085;-62
2022/12/03 03:09:05;;;;;;;5.65;2.10;;;;;;;22.42;33.76;102878.16;21079731;28;20055;-62
2022/12/03 03:19:07;;;;;;;6.78;1.60;;;;;;;22.47;33.67;102875.47;21084420;28;20070;-60
2022/12/03 03:29:09;;;;;;;6.68;2.08;;;;;;;22.56;33.87;102868.44;21065691;28;20047;-60
2022/12/03 03:39:11;;;;;;;9.73;2.67;;;;;;;22.64;33.60;102847.66;21068049;28;20047;-62
2022/12/03 03:49:12;;;;;;;7.88;2.17;;;;;;;22.71;34.00;102835.25;21068832;28;20097;-63
2022/12/03 03:59:14;;;;;;;5.18;2.00;;;;;;;22.79;34.10;102818.13;21070856;28;20048;-61
2022/12/03 04:09:15;;;;;;;5.68;1.73;;;;;;;22.84;34.14;102814.59;21046526;28;20487;-63
2022/12/03 04:19:16;;;;;;;6.20;2.10;;;;;;;22.86;33.78;102809.59;21073656;28;20090;-62
2022/12/03 04:29:19;;;;;;;8.23;1.85;;;;;;;22.95;33.96;102798.91;21066327;28;20101;-62
2022/12/03 04:39:20;;;;;;;6.82;1.67;;;;;;;22.99;34.07;102789.78;21072441;28;20047;-60
2022/12/03 04:49:25;;;;;;;4.53;1.83;;;;;;;22.89;33.98;102758.00;21066846;28;20043;-62
2022/12/03 04:59:27;;;;;;;3.90;1.42;;;;;;;23.03;33.65;102742.66;21058805;28;20545;-62
2022/12/03 05:09:28;;;;;;;5.50;2.00;;;;;;;23.06;33.58;102717.88;21053948;28;20044;-62
2022/12/03 05:29:49;;;;;;;3.58;1.50;;;;;;;23.06;33.75;102700.28;21067569;28;20036;-61
2022/12/03 05:39:50;;;;;;;3.40;1.40;;;;;;;23.11;33.94;102677.19;21058024;28;20036;-61
2022/12/03 05:49:54;;;;;;;3.75;1.27;;;;;;;23.12;34.15;102671.34;21055860;28;20109;-62
2022/12/03 05:59:55;;;;;;;5.07;1.58;;;;;;;23.14;33.77;102663.56;21060931;28;20040;-63
2022/12/03 06:09:59;;;;;;;8.57;2.15;;;;;;;23.10;33.74;102675.50;21072416;28;20036;-63
2022/12/03 06:20:04;;;;;;;8.43;1.65;;;;;;;23.04;33.84;102653.03;21075823;28;20407;-62
2022/12/03 06:30:09;;;;;;;5.72;1.58;;;;;;;22.98;33.42;102630.91;21062763;28;20441;-62
2022/12/03 06:40:12;;;;;;;5.93;1.30;;;;;;;22.91;33.42;102613.47;21074997;28;20425;-62
2022/12/03 06:50:13;;;;;;;6.38;2.15;;;;;;;22.81;33.70;102603.78;21083111;28;20169;-63
2022/12/03 07:00:14;;;;;;;4.28;1.70;;;;;;;22.78;33.92;102587.56;21035656;28;20040;-63
2022/12/03 07:10:19;;;;;;;2.85;1.42;;;;;;;22.73;33.76;102565.16;21078774;28;20368;-62
2022/12/03 07:20:20;;;;;;;3.63;1.35;;;;;;;22.68;33.77;102551.13;21083072;28;20036;-62
2022/12/03 07:30:31;;;;;;;4.13;1.40;;;;;;;22.61;33.89;102522.53;21078140;28;20097;-63
2022/12/03 07:40:32;;;;;;;2.70;1.10;;;;;;;22.60;33.98;102504.13;21077013;28;20529;-63
2022/12/03 07:50:33;;;;;;;3.92;1.40;;;;;;;22.56;34.09;102505.72;21076581;28;20446;-63
2022/12/03 08:00:34;;;;;;;7.75;1.33;;;;;;;22.45;34.20;102478.75;21080004;28;20052;-62
2022/12/03 08:10:36;;;;;;;2.35;1.10;;;;;;;22.47;34.21;102488.56;21071858;28;20029;-62
2022/12/03 08:20:40;;;;;;;2.20;1.00;;;;;;;22.44;33.90;102443.59;21080091;28;20101;-62
2022/12/03 08:30:43;;;;;;;2.25;1.10;;;;;;;22.41;33.99;102403.13;21063392;28;20044;-62
2022/12/03 08:40:47;;;;;;;2.65;1.23;;;;;;;22.37;34.20;102373.22;21077688;28;20043;-62
2022/12/03 08:50:49;;;;;;;1.42;1.10;;;;;;;22.35;34.26;102359.50;21076573;28;20044;-62
2022/12/03 09:01:12;;;;;;;3.05;1.40;;;;;;;22.31;34.13;102342.47;21067901;28;20044;-62
2022/12/03 09:11:14;;;;;;;3.80;1.25;;;;;;;22.22;33.97;102330.06;21075355;28;20044;-62
2022/12/03 09:21:18;;;;;;;1.30;1.10;;;;;;;22.24;34.01;102310.28;21059612;28;20552;-62
2022/12/03 09:31:22;;;;;;;2.13;0.90;;;;;;;22.21;34.12;102300.47;21069850;28;20044;-62
2022/12/03 09:41:24;;;;;;;2.25;1.10;;;;;;;22.19;34.56;102297.09;21071139;28;20120;-62
2022/12/03 09:51:31;;;;;;;2.03;0.90;;;;;;;22.16;34.36;102272.50;21072885;28;20552;-63
2022/12/03 10:01:33;;;;;;;1.40;1.00;;;;;;;22.16;34.59;102255.78;21061109;28;20051;-62
2022/12/03 10:11:35;;;;;;;2.92;1.17;;;;;;;22.15;34.60;102256.91;21070721;28;20036;-62
2022/12/03 10:21:37;;;;;;;1.60;1.00;;;;;;;22.16;34.39;102250.22;21070661;28;20491;-62
2022/12/03 10:31:39;;;;;;;1.08;0.98;;;;;;;22.16;34.30;102236.28;21087107;28;20483;-62
2022/12/03 10:41:43;;;;;;;2.10;1.00;;;;;;;22.15;34.87;102223.44;21081554;28;20040;-62
2022/12/03 10:51:47;;;;;;;1.75;0.80;;;;;;;22.20;34.60;102245.81;21087229;28;20383;-62
2022/12/03 11:01:52;;;;;;;2.20;0.65;;;;;;;22.19;34.98;102258.06;21080858;28;20036;-63
2022/12/03 11:11:54;;;;;;;1.63;0.80;;;;;;;22.19;34.98;102227.41;21085080;28;20039;-63
2022/12/03 11:22:10;;;;;;;1.50;0.77;;;;;;;22.19;34.79;102226.56;21076077;28;20491;-62
2022/12/03 11:32:34;;;;;;;1.38;0.77;;;;;;;22.14;35.15;102230.13;21082085;28;20066;-62
2022/12/03 11:42:39;;;;;;;2.75;1.00;;;;;;;22.20;34.87;102231.88;21083029;28;20036;-62
2022/12/03 11:52:43;;;;;;;0.93;0.85;;;;;;;22.18;35.25;102222.94;21081158;28;20043;-62
2022/12/03 12:02:48;;;;;;;2.22;0.95;;;;;;;22.15;35.11;102223.44;21080490;28;20086;-62
2022/12/03 12:12:49;;;;;;;0.68;0.68;;;;;;;22.15;35.05;102225.38;21077239;28;20491;-62
2022/12/03 12:22:58;;;;;;;2.10;1.15;;;;;;;22.12;35.47;102232.31;21079735;28;20097;-63
2022/12/03 12:33:23;;;;;;;1.27;0.60;;;;;;;22.07;35.43;102221.91;21078148;28;20666;-62
2022/12/03 12:43:30;;;;;;;1.33;0.65;;;;;;;21.97;35.35;102196.69;21075556;28;20051;-62
2022/12/03 12:53:36;;;;;;;1.02;0.60;;;;;;;22.01;35.19;102180.28;21052090;28;20058;-62
2022/12/03 13:03:39;;;;;;;0.70;0.70;;;;;;;22.08;35.38;102164.19;21076232;28;20036;-63
2022/12/03 13:13:42;;;;;;;1.42;0.57;;;;;;;22.09;35.64;102138.03;21067101;28;20097;-63
2022/12/03 13:23:43;;;;;;;0.75;0.52;;;;;;;22.15;35.62;102120.28;21069292;28;20404;-63
2022/12/03 13:33:45;;;;;;;1.20;0.73;;;;;;;22.14;35.68;102107.47;21058493;28;20491;-62
2022/12/03 13:44:15;;;;;;;2.72;0.70;;;;;;;22.16;36.13;102098.81;21021910;28;20139;-62
2022/12/03 13:54:22;;;;;;;1.10;0.77;;;;;;;22.12;35.95;102080.94;21071215;28;20040;-62
2022/12/03 14:04:24;;;;;;;0.85;0.70;;;;;;;22.12;36.41;102073.41;21070915;28;20040;-62
2022/12/03 14:14:25;;;;;;;1.80;1.00;;;;;;;22.10;36.46;102033.78;21066272;28;20453;-62
2022/12/03 14:24:27;;;;;;;2.63;0.93;;;;;;;22.12;36.42;102020.44;21059233;28;20036;-61
2022/12/03 14:34:38;;;;;;;;;;;;;;;;;;;;;
2022/12/03 14:44:44;;;;;;;1.25;0.70;;;;;;;22.11;36.34;102001.16;21065202;28;20564;-61
2022/12/03 14:54:46;;;;;;;2.88;0.90;;;;;;;22.08;36.81;101980.22;21064057;28;20148;-63
2022/12/03 15:04:47;;;;;;;2.97;0.63;;;;;;;22.08;36.87;101971.84;21064364;28;20036;-62
2022/12/03 15:14:49;;;;;;;1.52;0.82;;;;;;;22.06;36.79;101943.41;21069483;28;20112;-62
2022/12/03 15:24:50;;;;;;;2.55;0.82;;;;;;;22.04;36.52;101934.50;21067069;28;20113;-63
2022/12/03 15:34:54;;;;;;;2.15;0.98;;;;;;;21.92;36.71;101875.28;21078654;28;20096;-63
2022/12/03 15:44:58;;;;;;;0.98;0.73;;;;;;;21.97;36.87;101866.97;21077384;28;20044;-63
2022/12/03 15:55:00;;;;;;;5.78;1.00;;;;;;;21.95;36.91;101819.03;21069282;28;20121;-62
2022/12/03 16:05:07;;;;;;;4.70;1.15;;;;;;;21.93;37.01;101810.09;21062709;28;20105;-61
2022/12/03 16:15:08;;;;;;;10.93;1.15;;;;;;;21.97;38.08;101800.94;21063868;28;20438;-63
2022/12/03 16:25:09;;;;;;;6.60;1.40;;;;;;;;;;21071358;28;20055;-63
2022/12/03 16:35:11;;;;;;;5.38;1.38;;;;;;;22.03;38.02;101727.38;21062293;28;20036;-63
2022/12/03 16:55:28;;;;;;;5.78;1.00;;;;;;;22.12;37.91;101685.94;21024282;28;20089;-62
2022/12/03 17:05:30;;;;;;;5.40;1.33;;;;;;;22.15;38.41;101670.63;21043168;28;20487;-62
2022/12/03 17:15:31;;;;;;;5.00;1.13;;;;;;;22.18;38.46;101651.41;21077609;28;20036;-63
2022/12/03 17:25:33;;;;;;;2.67;0.95;;;;;;;22.05;38.35;101612.88;21076764;28;20556;-65
2022/12/03 17:35:34;;;;;;;3.72;0.88;;;;;;;22.23;38.27;101622.72;21076560;28;20093;-64
2022/12/03 17:45:42;;;;;;;3.03;1.00;;;;;;;22.26;38.01;101608.22;21075379;28;20044;-63
2022/12/03 17:55:45;;;;;;;1.60;0.80;;;;;;;22.28;38.19;101566.97;21075886;28;20047;-65
2022/12/03 18:05:46;;;;;;;1.90;0.73;;;;;;;22.24;38.45;101560.28;21074182;28;20048;-65
2022/12/03 18:15:48;;;;;;;3.35;1.20;;;;;;;22.30;38.48;101537.69;21061121;28;20052;-65
2022/12/03 18:25:52;;;;;;;5.38;1.00;;;;;;;22.35;38.21;101505.34;21051384;28;20036;-63
2022/12/03 18:35:57;;;;;;;4.05;1.08;;;;;;;22.39;38.58;101506.47;21064169;28;20040;-66
2022/12/03 18:45:58;;;;;;;1.98;0.80;;;;;;;22.42;38.68;101478.03;21077031;28;20048;-64
2022/12/03 18:55:59;;;;;;;1.55;0.80;;;;;;;22.53;38.93;101490.88;21085154;28;20556;-63
2022/12/03 19:06:00;;;;;;;1.75;0.85;;;;;;;22.63;38.66;101504.81;21077049;28;20121;-65
2022/12/03 19:16:03;;;;;;;3.90;0.85;;;;;;;22.72;38.96;101488.34;21066324;28;20457;-64
2022/12/03 19:26:06;;;;;;;4.75;0.80;;;;;;;22.78;39.12;101481.66;21083471;28;20506;-64
2022/12/03 19:36:20;;;;;;;2.47;0.73;;;;;;;22.80;38.71;101446.75;21060157;28;20117;-65
2022/12/03 19:46:23;;;;;;;2.33;0.93;;;;;;;22.93;39.00;101472.47;21066597;28;20564;-65
2022/12/03 19:56:25;;;;;;;2.40;0.70;;;;;;;22.96;39.41;101478.31;21074798;28;20062;-66
2022/12/03 20:06:33;;;;;;;5.93;0.70;;;;;;;23.00;38.96;101484.16;21073637;28;20052;-65
2022/12/03 20:16:35;;;;;;;2.45;0.90;;;;;;;23.07;39.30;101481.91;21070517;28;20036;-67
2022/12/03 20:26:37;;;;;;;1.92;0.98;;;;;;;23.11;39.06;101465.44;21073042;28;20051;-64
2022/12/03 20:36:38;;;;;;;3.58;0.82;;;;;;;23.06;39.28;101460.72;21058767;28;20138;-64
2022/12/03 20:46:40;;;;;;;1.70;0.55;;;;;;;23.13;38.77;101466.81;21069234;28;20048;-63
2022/12/03 20:56:41;;;;;;;2.28;0.70;;;;;;;23.18;39.26;101479.94;21072053;28;20403;-65
2022/12/03 21:06:43;;;;;;;2.78;0.80;;;;;;;23.21;39.29;101463.44;21073393;28;20376;-63
2022/12/03 21:16:48;;;;;;;1.08;0.60;;;;;;;23.20;39.15;101453.41;21073537;28;20040;-64
2022/12/03 21:26:52;;;;;;;1.25;0.70;;;;;;;23.17;39.02;101465.13;21067125;28;20399;-63
2022/12/03 21:36:53;;;;;;;1.58;0.90;;;;;;;23.16;39.19;101471.84;21073252;28;20040;-63
2022/12/03 21:46:58;;;;;;;1.00;0.55;;;;;;;23.13;39.03;101471.56;21061452;28;20097;-65
2022/12/03 21:57:05;;;;;;;7.22;0.98;;;;;;;23.14;39.39;101493.63;21048494;28;20040;-64
2022/12/03 22:07:09;;;;;;;3.55;1.13;;;;;;;23.10;39.60;101505.66;21053168;28;20052;-64
2022/12/03 22:17:10;;;;;;;6.60;1.40;;;;;;;23.10;39.97;101500.91;21057742;28;20044;-64
2022/12/03 22:27:12;;;;;;;4.93;0.93;;;;;;;23.10;39.97;101530.78;21074549;28;20044;-64
2022/12/03 22:37:14;;;;;;;2.08;1.10;;;;;;;23.11;39.96;101546.41;21077248;28;20066;-66
2022/12/03 22:47:20;;;;;;;3.80;1.23;;;;;;;23.04;39.91;101602.50;21074688;28;20048;-67
2022/12/03 22:57:24;;;;;;;2.85;0.90;;;;;;;23.00;40.07;101623.72;21053800;28;20098;-64
2022/12/03 23:07:28;;;;;;;5.45;1.00;;;;;;;23.09;39.68;101602.50;21064337;28;20368;-63
2022/12/03 23:17:35;;;;;;;3.10;1.02;;;;;;;23.08;39.92;101617.56;21061949;28;20442;-67
2022/12/03 23:27:39;;;;;;;1.85;1.00;;;;;;;23.07;39.80;101613.13;21067076;28;20503;-66
2022/12/03 23:37:43;;;;;;;5.18;1.20;;;;;;;23.11;39.57;101633.78;21082166;28;20051;-63
2022/12/03 23:47:44;;;;;;;4.90;1.30;;;;;;;23.08;39.61;101665.88;21078852;28;20097;-62
2022/12/03 23:57:48;;;;;;;3.00;1.20;;;;;;;23.00;39.87;101673.94;21070832;28;20070;-68
